TimeCDT,TemperatureF,Dew PointF,Humidity,Sea Level PressureIn,VisibilityMPH,Wind Direction,Wind SpeedMPH,Gust SpeedMPH,PrecipitationIn,Events,Conditions,WindDirDegrees,DateUTC
12:53 AM,41.0,36.0,82,29.82,10.0,East,10.4,-,0.02,,Overcast,90,2013-04-14 05:53:00
1:53 AM,41.0,36.0,82,29.81,10.0,East,12.7,-,N/A,,Overcast,100,2013-04-14 06:53:00
2:53 AM,41.0,36.0,82,29.77,10.0,East,12.7,-,0.00,,Overcast,90,2013-04-14 07:53:00
3:53 AM,39.9,37.0,89,29.77,8.0,East,8.1,-,0.09,Rain,Light Rain,80,2013-04-14 08:53:00
4:53 AM,39.9,37.0,89,29.74,6.0,East,13.8,-,0.15,Rain,Light Rain,90,2013-04-14 09:53:00
5:53 AM,39.9,37.0,89,29.68,10.0,East,13.8,23.0,0.02,Rain,Light Rain,90,2013-04-14 10:53:00
6:53 AM,39.9,37.0,89,29.66,10.0,East,12.7,23.0,0.00,Rain,Light Rain,100,2013-04-14 11:53:00
7:53 AM,41.0,37.0,86,29.63,10.0,East,11.5,21.9,0.00,,Overcast,90,2013-04-14 12:53:00
8:53 AM,43.0,39.0,86,29.60,10.0,East,13.8,23.0,N/A,,Scattered Clouds,100,2013-04-14 13:53:00
9:53 AM,45.0,41.0,86,29.59,10.0,ESE,13.8,24.2,0.00,,Mostly Cloudy,110,2013-04-14 14:53:00
10:53 AM,48.9,44.1,83,29.53,10.0,ESE,15.0,26.5,N/A,,Mostly Cloudy,120,2013-04-14 15:53:00
11:53 AM,53.1,46.9,80,29.50,10.0,SE,12.7,-,0.00,Rain,Light Rain,130,2013-04-14 16:53:00
12:53 PM,57.9,50.0,75,29.47,10.0,SE,11.5,-,0.02,,Overcast,130,2013-04-14 17:53:00
1:53 PM,61.0,51.1,70,29.44,10.0,SSE,11.5,-,N/A,,Overcast,150,2013-04-14 18:53:00
2:53 PM,63.0,52.0,67,29.42,10.0,SSE,12.7,-,N/A,,Overcast,150,2013-04-14 19:53:00
3:53 PM,63.0,52.0,67,29.41,10.0,South,16.1,25.3,N/A,,Overcast,170,2013-04-14 20:53:00
4:53 PM,64.9,53.1,65,29.40,10.0,South,19.6,31.1,0.00,,Partly Cloudy,180,2013-04-14 21:53:00
5:36 PM,57.2,53.6,88,29.45,5.0,WSW,19.6,32.2,0.01,Rain,Light Rain,250,2013-04-14 22:36:00
5:44 PM,57.2,53.6,88,29.46,1.8,WSW,24.2,36.8,0.11,Rain,Heavy Rain,240,2013-04-14 22:44:00
5:53 PM,55.9,54.0,93,29.46,2.0,SW,19.6,-,0.14,Rain,Rain,230,2013-04-14 22:53:00
6:01 PM,57.2,53.6,88,29.46,5.0,SW,17.3,-,0.02,Rain,Light Rain,230,2013-04-14 23:01:00
6:53 PM,55.9,54.0,93,29.48,10.0,SSW,9.2,-,0.12,,Overcast,210,2013-04-14 23:53:00
7:53 PM,55.0,51.1,86,29.53,10.0,West,9.2,-,N/A,,Overcast,260,2013-04-15 00:53:00
8:53 PM,53.1,48.9,86,29.57,10.0,WNW,8.1,-,N/A,,Overcast,290,2013-04-15 01:53:00
9:53 PM,48.9,46.0,90,29.60,10.0,WSW,4.6,-,N/A,,Clear,250,2013-04-15 02:53:00
10:53 PM,48.9,43.0,80,29.63,10.0,West,5.8,-,N/A,,Overcast,260,2013-04-15 03:53:00
11:53 PM,46.9,43.0,86,29.65,10.0,West,6.9,-,N/A,,Overcast,260,2013-04-15 04:53:00